sensor_id;sensor_type;location;lat;lon;timestamp;pressure;altitude;pressure_sealevel;temperature;humidity
78679;BME280;67994;59.334;13.528;2024-03-07T00:00:01;102900.0;;;-1.1;75.5
78679;BME280;67994;59.334;13.528;2024-03-07T00:01:00;102900.0;;;-1.2;75.4
78679;BME280;67994;59.334;13.528;2024-03-07T00:02:00;102900.0;;;-1.1;74.4
78679;BME280;67994;59.334;13.528;2024-03-07T00:03:01;102900.0;;;-1.0;74.2
78679;BME280;67994;59.334;13.528;2024-03-07T00:04:01;102900.0;;;-1.0;75.5
78679;BME280;67994;59.334;13.528;2024-03-07T00:05:00;102900.0;;;-1.0;75.8
78679;BME280;67994;59.334;13.528;2024-03-07T00:06:01;102900.0;;;-0.8;75.9
78679;BME280;67994;59.334;13.528;2024-03-07T00:07:01;102900.0;;;-0.8;74.5
78679;BME280;67994;59.334;13.528;2024-03-07T00:08:01;102900.0;;;-0.8;74.6
78679;BME280;67994;59.334;13.528;2024-03-07T00:09:01;102900.0;;;-0.8;75.6
78679;BME280;67994;59.334;13.528;2024-03-07T00:10:01;102900.0;;;-0.8;75.3
78679;BME280;67994;59.334;13.528;2024-03-07T00:11:00;102900.0;;;-0.7;75.1
78679;BME280;67994;59.334;13.528;2024-03-07T00:12:01;102900.0;;;-0.7;75.1
78679;BME280;67994;59.334;13.528;2024-03-07T00:13:01;102900.0;;;-0.8;75.1
78679;BME280;67994;59.334;13.528;2024-03-07T00:14:01;102900.0;;;-0.8;74.2
78679;BME280;67994;59.334;13.528;2024-03-07T00:15:00;102900.0;;;-0.8;73.9
78679;BME280;67994;59.334;13.528;2024-03-07T00:16:01;102900.0;;;-0.8;74.3
78679;BME280;67994;59.334;13.528;2024-03-07T00:17:01;102900.0;;;-0.9;74.2
78679;BME280;67994;59.334;13.528;2024-03-07T00:18:01;102900.0;;;-0.9;73.8
78679;BME280;67994;59.334;13.528;2024-03-07T00:19:01;102900.0;;;-0.9;73.5
78679;BME280;67994;59.334;13.528;2024-03-07T00:20:01;102900.0;;;-0.9;73.9
78679;BME280;67994;59.334;13.528;2024-03-07T00:21:01;102900.0;;;-0.9;73.6
78679;BME280;67994;59.334;13.528;2024-03-07T00:22:00;102900.0;;;-0.9;73.6
78679;BME280;67994;59.334;13.528;2024-03-07T00:23:01;102900.0;;;-0.9;73.6
78679;BME280;67994;59.334;13.528;2024-03-07T00:24:01;102900.0;;;-1.0;73.7
78679;BME280;67994;59.334;13.528;2024-03-07T00:25:01;102900.0;;;-1.0;73.9
78679;BME280;67994;59.334;13.528;2024-03-07T00:26:00;102900.0;;;-0.9;73.8
78679;BME280;67994;59.334;13.528;2024-03-07T00:27:01;102900.0;;;-1.1;74.3
78679;BME280;67994;59.334;13.528;2024-03-07T00:28:01;102900.0;;;-1.2;74.4
78679;BME280;67994;59.334;13.528;2024-03-07T00:29:00;102900.0;;;-1.2;74.0
78679;BME280;67994;59.334;13.528;2024-03-07T00:30:00;102900.0;;;-1.4;73.5
78679;BME280;67994;59.334;13.528;2024-03-07T00:31:01;102900.0;;;-1.3;73.6
78679;BME280;67994;59.334;13.528;2024-03-07T00:32:01;102900.0;;;-1.1;74.1
78679;BME280;67994;59.334;13.528;2024-03-07T00:33:01;102900.0;;;-1.1;74.5
78679;BME280;67994;59.334;13.528;2024-03-07T00:34:00;102900.0;;;-1.1;74.3
78679;BME280;67994;59.334;13.528;2024-03-07T00:35:01;102900.0;;;-1.1;74.5
78679;BME280;67994;59.334;13.528;2024-03-07T00:36:01;102900.0;;;-1.2;74.5
78679;BME280;67994;59.334;13.528;2024-03-07T00:37:00;102900.0;;;-1.2;74.2
78679;BME280;67994;59.334;13.528;2024-03-07T00:38:01;102900.0;;;-1.3;74.5
78679;BME280;67994;59.334;13.528;2024-03-07T00:39:01;102900.0;;;-1.4;74.6
78679;BME280;67994;59.334;13.528;2024-03-07T00:40:00;102900.0;;;-1.3;74.2
78679;BME280;67994;59.334;13.528;2024-03-07T00:41:01;102900.0;;;-1.3;74.2
78679;BME280;67994;59.334;13.528;2024-03-07T00:42:01;102900.0;;;-1.3;74.5
78679;BME280;67994;59.334;13.528;2024-03-07T00:43:01;102900.0;;;-1.3;75.1
78679;BME280;67994;59.334;13.528;2024-03-07T00:44:01;102900.0;;;-1.3;74.6
78679;BME280;67994;59.334;13.528;2024-03-07T00:45:01;102900.0;;;-1.3;74.6
78679;BME280;67994;59.334;13.528;2024-03-07T00:46:00;102900.0;;;-1.2;74.4
78679;BME280;67994;59.334;13.528;2024-03-07T00:47:01;102900.0;;;-1.1;74.6
78679;BME280;67994;59.334;13.528;2024-03-07T00:48:01;102900.0;;;-1.1;74.3
78679;BME280;67994;59.334;13.528;2024-03-07T00:49:00;102900.0;;;-1.1;74.4
78679;BME280;67994;59.334;13.528;2024-03-07T00:50:01;102900.0;;;-1.0;74.0
78679;BME280;67994;59.334;13.528;2024-03-07T00:51:00;102900.0;;;-1.1;74.5
78679;BME280;67994;59.334;13.528;2024-03-07T00:52:01;102900.0;;;-1.1;74.3
78679;BME280;67994;59.334;13.528;2024-03-07T00:53:01;102900.0;;;-1.0;74.5
78679;BME280;67994;59.334;13.528;2024-03-07T00:54:01;102900.0;;;-1.1;74.1
78679;BME280;67994;59.334;13.528;2024-03-07T00:55:00;102900.0;;;-1.2;74.0
78679;BME280;67994;59.334;13.528;2024-03-07T00:56:01;102900.0;;;-1.1;73.9
78679;BME280;67994;59.334;13.528;2024-03-07T00:57:01;102900.0;;;-1.1;73.6
78679;BME280;67994;59.334;13.528;2024-03-07T00:58:01;102900.0;;;-1.2;73.4
78679;BME280;67994;59.334;13.528;2024-03-07T00:59:01;102900.0;;;-1.2;73.7
78679;BME280;67994;59.334;13.528;2024-03-07T01:00:01;102900.0;;;-1.2;73.4
78679;BME280;67994;59.334;13.528;2024-03-07T01:01:01;102900.0;;;-1.2;73.4
78679;BME280;67994;59.334;13.528;2024-03-07T01:02:00;102900.0;;;-1.2;73.4
78679;BME280;67994;59.334;13.528;2024-03-07T01:03:00;102900.0;;;-1.3;73.7
78679;BME280;67994;59.334;13.528;2024-03-07T01:04:00;102900.0;;;-1.2;74.1
78679;BME280;67994;59.334;13.528;2024-03-07T01:05:01;102900.0;;;-1.2;74.1
78679;BME280;67994;59.334;13.528;2024-03-07T01:06:01;102900.0;;;-1.2;74.3
78679;BME280;67994;59.334;13.528;2024-03-07T01:07:01;102900.0;;;-1.2;74.6
78679;BME280;67994;59.334;13.528;2024-03-07T01:08:01;102900.0;;;-1.3;74.0
78679;BME280;67994;59.334;13.528;2024-03-07T01:09:00;102900.0;;;-1.3;74.4
78679;BME280;67994;59.334;13.528;2024-03-07T01:10:00;102900.0;;;-1.2;74.2
78679;BME280;67994;59.334;13.528;2024-03-07T01:11:01;102900.0;;;-1.2;74.6
78679;BME280;67994;59.334;13.528;2024-03-07T01:12:02;102900.0;;;-1.1;75.0
78679;BME280;67994;59.334;13.528;2024-03-07T01:13:00;102900.0;;;-1.1;75.3
78679;BME280;67994;59.334;13.528;2024-03-07T01:14:00;102900.0;;;-1.3;75.6
78679;BME280;67994;59.334;13.528;2024-03-07T01:15:00;102900.0;;;-1.5;76.2
78679;BME280;67994;59.334;13.528;2024-03-07T01:16:00;102900.0;;;-1.7;76.1
78679;BME280;67994;59.334;13.528;2024-03-07T01:17:01;102900.0;;;-1.5;76.6
78679;BME280;67994;59.334;13.528;2024-03-07T01:18:01;102900.0;;;-1.4;76.5
78679;BME280;67994;59.334;13.528;2024-03-07T01:19:01;102900.0;;;-1.4;76.1
78679;BME280;67994;59.334;13.528;2024-03-07T01:20:00;102900.0;;;-1.4;76.1
78679;BME280;67994;59.334;13.528;2024-03-07T01:21:01;102900.0;;;-1.3;75.3
78679;BME280;67994;59.334;13.528;2024-03-07T01:22:00;102900.0;;;-1.3;75.4
78679;BME280;67994;59.334;13.528;2024-03-07T01:23:01;102900.0;;;-1.2;75.9
78679;BME280;67994;59.334;13.528;2024-03-07T01:24:01;102900.0;;;-1.2;75.6
78679;BME280;67994;59.334;13.528;2024-03-07T01:25:01;102900.0;;;-1.2;75.2
78679;BME280;67994;59.334;13.528;2024-03-07T01:26:01;102900.0;;;-1.3;76.6
78679;BME280;67994;59.334;13.528;2024-03-07T01:27:01;102900.0;;;-1.4;77.0
78679;BME280;67994;59.334;13.528;2024-03-07T01:28:01;102900.0;;;-1.3;75.8
78679;BME280;67994;59.334;13.528;2024-03-07T01:29:01;102900.0;;;-1.2;75.7
78679;BME280;67994;59.334;13.528;2024-03-07T01:30:01;102900.0;;;-1.2;75.5
78679;BME280;67994;59.334;13.528;2024-03-07T01:31:01;102900.0;;;-1.2;75.0
78679;BME280;67994;59.334;13.528;2024-03-07T01:32:01;102900.0;;;-1.2;74.5
78679;BME280;67994;59.334;13.528;2024-03-07T01:33:00;102900.0;;;-1.2;74.1
78679;BME280;67994;59.334;13.528;2024-03-07T01:34:01;102900.0;;;-1.4;74.9
78679;BME280;67994;59.334;13.528;2024-03-07T01:35:01;102900.0;;;-1.4;75.7
78679;BME280;67994;59.334;13.528;2024-03-07T01:36:00;102900.0;;;-1.5;76.0
78679;BME280;67994;59.334;13.528;2024-03-07T01:37:00;102900.0;;;-1.4;75.9
78679;BME280;67994;59.334;13.528;2024-03-07T01:38:01;102900.0;;;-1.5;76.2
78679;BME280;67994;59.334;13.528;2024-03-07T01:39:00;102900.0;;;-1.5;76.6
78679;BME280;67994;59.334;13.528;2024-03-07T01:40:01;102900.0;;;-1.8;76.6
78679;BME280;67994;59.334;13.528;2024-03-07T01:41:00;102900.0;;;-1.7;75.8
78679;BME280;67994;59.334;13.528;2024-03-07T01:42:00;102900.0;;;-1.6;75.7
78679;BME280;67994;59.334;13.528;2024-03-07T01:43:01;102900.0;;;-1.4;75.6
78679;BME280;67994;59.334;13.528;2024-03-07T01:44:00;102900.0;;;-1.6;74.5
78679;BME280;67994;59.334;13.528;2024-03-07T01:45:00;102900.0;;;-1.5;74.5
78679;BME280;67994;59.334;13.528;2024-03-07T01:46:01;102900.0;;;-1.5;74.3
78679;BME280;67994;59.334;13.528;2024-03-07T01:47:01;102900.0;;;-1.6;73.6
78679;BME280;67994;59.334;13.528;2024-03-07T01:48:01;102900.0;;;-1.6;73.5
78679;BME280;67994;59.334;13.528;2024-03-07T01:49:01;102900.0;;;-1.5;73.9
78679;BME280;67994;59.334;13.528;2024-03-07T01:50:01;102900.0;;;-1.4;74.2
78679;BME280;67994;59.334;13.528;2024-03-07T01:51:01;102900.0;;;-1.4;74.4
78679;BME280;67994;59.334;13.528;2024-03-07T01:52:01;102900.0;;;-1.3;74.2
78679;BME280;67994;59.334;13.528;2024-03-07T01:53:00;102800.0;;;-1.3;73.8
78679;BME280;67994;59.334;13.528;2024-03-07T01:54:01;102800.0;;;-1.3;73.6
78679;BME280;67994;59.334;13.528;2024-03-07T01:55:01;102900.0;;;-1.3;73.7
78679;BME280;67994;59.334;13.528;2024-03-07T01:56:02;102900.0;;;-1.3;73.4
78679;BME280;67994;59.334;13.528;2024-03-07T01:57:01;102900.0;;;-1.4;73.9
78679;BME280;67994;59.334;13.528;2024-03-07T01:58:02;102900.0;;;-1.4;74.4
78679;BME280;67994;59.334;13.528;2024-03-07T01:59:01;102900.0;;;-1.4;74.7
78679;BME280;67994;59.334;13.528;2024-03-07T02:00:01;102900.0;;;-1.5;74.8
78679;BME280;67994;59.334;13.528;2024-03-07T02:01:01;102900.0;;;-1.4;75.2
78679;BME280;67994;59.334;13.528;2024-03-07T02:02:01;102900.0;;;-1.4;74.9
78679;BME280;67994;59.334;13.528;2024-03-07T02:03:01;102900.0;;;-1.4;74.2
78679;BME280;67994;59.334;13.528;2024-03-07T02:04:01;102900.0;;;-1.4;74.3
78679;BME280;67994;59.334;13.528;2024-03-07T02:05:01;102800.0;;;-1.4;74.3
78679;BME280;67994;59.334;13.528;2024-03-07T02:06:01;102900.0;;;-1.5;73.6
78679;BME280;67994;59.334;13.528;2024-03-07T02:07:00;102800.0;;;-1.6;73.7
78679;BME280;67994;59.334;13.528;2024-03-07T02:08:00;102900.0;;;-1.9;74.8
78679;BME280;67994;59.334;13.528;2024-03-07T02:09:01;102900.0;;;-2.0;76.1
78679;BME280;67994;59.334;13.528;2024-03-07T02:10:01;102900.0;;;-2.1;76.5
78679;BME280;67994;59.334;13.528;2024-03-07T02:11:01;102900.0;;;-1.9;76.3
78679;BME280;67994;59.334;13.528;2024-03-07T02:12:02;102900.0;;;-2.0;75.6
78679;BME280;67994;59.334;13.528;2024-03-07T02:13:00;102900.0;;;-1.8;74.6
78679;BME280;67994;59.334;13.528;2024-03-07T02:14:00;102800.0;;;-1.8;74.4
78679;BME280;67994;59.334;13.528;2024-03-07T02:15:01;102800.0;;;-1.7;74.7
78679;BME280;67994;59.334;13.528;2024-03-07T02:16:00;102800.0;;;-1.8;75.1
78679;BME280;67994;59.334;13.528;2024-03-07T02:17:00;102800.0;;;-1.8;75.6
78679;BME280;67994;59.334;13.528;2024-03-07T02:18:01;102800.0;;;-1.7;75.4
78679;BME280;67994;59.334;13.528;2024-03-07T02:19:00;102800.0;;;-1.6;75.2
78679;BME280;67994;59.334;13.528;2024-03-07T02:20:00;102800.0;;;-1.6;74.8
78679;BME280;67994;59.334;13.528;2024-03-07T02:21:00;102800.0;;;-1.6;74.4
78679;BME280;67994;59.334;13.528;2024-03-07T02:22:00;102800.0;;;-1.7;74.4
78679;BME280;67994;59.334;13.528;2024-03-07T02:23:00;102800.0;;;-1.7;74.6
78679;BME280;67994;59.334;13.528;2024-03-07T02:24:00;102800.0;;;-1.6;74.6
78679;BME280;67994;59.334;13.528;2024-03-07T02:25:00;102800.0;;;-1.6;74.3
78679;BME280;67994;59.334;13.528;2024-03-07T02:26:01;102800.0;;;-1.7;73.9
78679;BME280;67994;59.334;13.528;2024-03-07T02:27:00;102800.0;;;-1.7;73.7
78679;BME280;67994;59.334;13.528;2024-03-07T02:28:00;102800.0;;;-1.7;73.6
78679;BME280;67994;59.334;13.528;2024-03-07T02:29:00;102800.0;;;-1.7;73.6
78679;BME280;67994;59.334;13.528;2024-03-07T02:30:01;102800.0;;;-1.7;73.7
78679;BME280;67994;59.334;13.528;2024-03-07T02:31:00;102800.0;;;-1.8;73.8
78679;BME280;67994;59.334;13.528;2024-03-07T02:32:00;102800.0;;;-1.7;74.1
78679;BME280;67994;59.334;13.528;2024-03-07T02:33:00;102800.0;;;-1.8;74.2
78679;BME280;67994;59.334;13.528;2024-03-07T02:34:00;102800.0;;;-1.7;73.9
78679;BME280;67994;59.334;13.528;2024-03-07T02:35:00;102800.0;;;-1.7;74.0
78679;BME280;67994;59.334;13.528;2024-03-07T02:36:00;102800.0;;;-1.8;73.9
78679;BME280;67994;59.334;13.528;2024-03-07T02:37:00;102800.0;;;-1.8;73.8
78679;BME280;67994;59.334;13.528;2024-03-07T02:38:00;102800.0;;;-1.9;74.5
78679;BME280;67994;59.334;13.528;2024-03-07T02:39:01;102800.0;;;-2.2;74.0
78679;BME280;67994;59.334;13.528;2024-03-07T02:40:00;102800.0;;;-2.2;74.6
78679;BME280;67994;59.334;13.528;2024-03-07T02:41:00;102800.0;;;-2.0;73.9
78679;BME280;67994;59.334;13.528;2024-03-07T02:42:00;102800.0;;;-1.9;74.1
78679;BME280;67994;59.334;13.528;2024-03-07T02:43:00;102800.0;;;-1.8;74.0
78679;BME280;67994;59.334;13.528;2024-03-07T02:44:01;102800.0;;;-1.8;74.0
78679;BME280;67994;59.334;13.528;2024-03-07T02:45:00;102800.0;;;-1.8;74.2
78679;BME280;67994;59.334;13.528;2024-03-07T02:46:01;102800.0;;;-1.9;74.2
78679;BME280;67994;59.334;13.528;2024-03-07T02:47:01;102800.0;;;-1.9;73.2
78679;BME280;67994;59.334;13.528;2024-03-07T02:48:01;102800.0;;;-2.0;73.4
78679;BME280;67994;59.334;13.528;2024-03-07T02:49:01;102800.0;;;-1.9;74.2
78679;BME280;67994;59.334;13.528;2024-03-07T02:50:00;102800.0;;;-1.9;74.2
78679;BME280;67994;59.334;13.528;2024-03-07T02:51:00;102800.0;;;-1.9;74.2
78679;BME280;67994;59.334;13.528;2024-03-07T02:52:00;102800.0;;;-1.8;74.0
78679;BME280;67994;59.334;13.528;2024-03-07T02:53:00;102800.0;;;-1.9;73.5
78679;BME280;67994;59.334;13.528;2024-03-07T02:54:01;102800.0;;;-2.0;73.3
78679;BME280;67994;59.334;13.528;2024-03-07T02:55:00;102800.0;;;-2.1;73.5
78679;BME280;67994;59.334;13.528;2024-03-07T02:56:01;102800.0;;;-2.4;75.2
78679;BME280;67994;59.334;13.528;2024-03-07T02:57:01;102800.0;;;-2.4;75.9
78679;BME280;67994;59.334;13.528;2024-03-07T02:58:00;102800.0;;;-2.5;76.6
78679;BME280;67994;59.334;13.528;2024-03-07T02:59:00;102800.0;;;-2.5;76.9
78679;BME280;67994;59.334;13.528;2024-03-07T03:00:01;102800.0;;;-2.5;77.1
78679;BME280;67994;59.334;13.528;2024-03-07T03:01:00;102800.0;;;-2.6;77.2
78679;BME280;67994;59.334;13.528;2024-03-07T03:02:00;102800.0;;;-2.4;77.2
78679;BME280;67994;59.334;13.528;2024-03-07T03:03:01;102800.0;;;-2.4;77.3
78679;BME280;67994;59.334;13.528;2024-03-07T03:04:00;102800.0;;;-2.5;77.4
78679;BME280;67994;59.334;13.528;2024-03-07T03:05:00;102800.0;;;-2.5;77.7
78679;BME280;67994;59.334;13.528;2024-03-07T03:06:01;102800.0;;;-2.4;76.9
78679;BME280;67994;59.334;13.528;2024-03-07T03:07:00;102800.0;;;-2.1;76.1
78679;BME280;67994;59.334;13.528;2024-03-07T03:08:00;102800.0;;;-2.0;75.5
78679;BME280;67994;59.334;13.528;2024-03-07T03:09:01;102800.0;;;-1.9;75.3
78679;BME280;67994;59.334;13.528;2024-03-07T03:10:00;102800.0;;;-2.0;74.5
78679;BME280;67994;59.334;13.528;2024-03-07T03:11:01;102800.0;;;-2.0;74.5
78679;BME280;67994;59.334;13.528;2024-03-07T03:12:01;102800.0;;;-2.0;73.8
78679;BME280;67994;59.334;13.528;2024-03-07T03:13:00;102800.0;;;-2.0;73.8
78679;BME280;67994;59.334;13.528;2024-03-07T03:14:00;102800.0;;;-2.0;73.6
78679;BME280;67994;59.334;13.528;2024-03-07T03:15:01;102800.0;;;-2.0;73.9
78679;BME280;67994;59.334;13.528;2024-03-07T03:16:00;102800.0;;;-2.0;73.7
78679;BME280;67994;59.334;13.528;2024-03-07T03:17:00;102800.0;;;-1.9;73.8
78679;BME280;67994;59.334;13.528;2024-03-07T03:18:00;102800.0;;;-2.0;73.9
78679;BME280;67994;59.334;13.528;2024-03-07T03:19:00;102800.0;;;-2.0;73.6
78679;BME280;67994;59.334;13.528;2024-03-07T03:20:00;102800.0;;;-2.0;73.4
78679;BME280;67994;59.334;13.528;2024-03-07T03:21:01;102800.0;;;-2.0;73.3
78679;BME280;67994;59.334;13.528;2024-03-07T03:22:01;102800.0;;;-2.1;73.4
78679;BME280;67994;59.334;13.528;2024-03-07T03:23:01;102800.0;;;-2.2;73.4
78679;BME280;67994;59.334;13.528;2024-03-07T03:24:01;102800.0;;;-2.1;73.7
78679;BME280;67994;59.334;13.528;2024-03-07T03:25:01;102800.0;;;-2.1;74.1
78679;BME280;67994;59.334;13.528;2024-03-07T03:26:01;102800.0;;;-2.2;73.8
78679;BME280;67994;59.334;13.528;2024-03-07T03:27:00;102800.0;;;-2.1;74.4
78679;BME280;67994;59.334;13.528;2024-03-07T03:28:01;102800.0;;;-2.1;74.2
78679;BME280;67994;59.334;13.528;2024-03-07T03:29:01;102800.0;;;-2.1;74.7
78679;BME280;67994;59.334;13.528;2024-03-07T03:30:00;102800.0;;;-2.2;75.2
78679;BME280;67994;59.334;13.528;2024-03-07T03:31:00;102800.0;;;-2.2;76.4
78679;BME280;67994;59.334;13.528;2024-03-07T03:32:01;102800.0;;;-2.2;76.5
78679;BME280;67994;59.334;13.528;2024-03-07T03:33:00;102800.0;;;-2.2;75.4
78679;BME280;67994;59.334;13.528;2024-03-07T03:34:01;102800.0;;;-2.1;75.5
78679;BME280;67994;59.334;13.528;2024-03-07T03:35:01;102800.0;;;-2.0;76.2
78679;BME280;67994;59.334;13.528;2024-03-07T03:36:01;102800.0;;;-2.0;75.8
78679;BME280;67994;59.334;13.528;2024-03-07T03:37:01;102800.0;;;-2.2;75.2
78679;BME280;67994;59.334;13.528;2024-03-07T03:38:01;102800.0;;;-2.2;76.5
78679;BME280;67994;59.334;13.528;2024-03-07T03:39:00;102800.0;;;-2.1;76.0
78679;BME280;67994;59.334;13.528;2024-03-07T03:40:00;102800.0;;;-2.0;75.2
78679;BME280;67994;59.334;13.528;2024-03-07T03:41:00;102800.0;;;-2.0;74.3
78679;BME280;67994;59.334;13.528;2024-03-07T03:42:00;102800.0;;;-1.9;73.8
78679;BME280;67994;59.334;13.528;2024-03-07T03:43:01;102800.0;;;-2.0;74.6
78679;BME280;67994;59.334;13.528;2024-03-07T03:44:01;102800.0;;;-2.0;74.5
78679;BME280;67994;59.334;13.528;2024-03-07T03:45:01;102800.0;;;-1.9;74.7
78679;BME280;67994;59.334;13.528;2024-03-07T03:46:01;102800.0;;;-1.9;74.1
78679;BME280;67994;59.334;13.528;2024-03-07T03:47:00;102800.0;;;-1.9;74.1
78679;BME280;67994;59.334;13.528;2024-03-07T03:48:00;102800.0;;;-1.9;74.4
78679;BME280;67994;59.334;13.528;2024-03-07T03:49:01;102800.0;;;-2.0;73.8
78679;BME280;67994;59.334;13.528;2024-03-07T03:50:01;102800.0;;;-2.2;73.1
78679;BME280;67994;59.334;13.528;2024-03-07T03:51:01;102800.0;;;-2.2;73.3
78679;BME280;67994;59.334;13.528;2024-03-07T03:52:01;102800.0;;;-2.4;75.2
78679;BME280;67994;59.334;13.528;2024-03-07T03:53:01;102800.0;;;-2.5;76.6
78679;BME280;67994;59.334;13.528;2024-03-07T03:54:01;102800.0;;;-2.4;77.2
78679;BME280;67994;59.334;13.528;2024-03-07T03:55:01;102800.0;;;-2.5;77.0
78679;BME280;67994;59.334;13.528;2024-03-07T03:56:01;102800.0;;;-2.4;76.3
78679;BME280;67994;59.334;13.528;2024-03-07T03:57:01;102800.0;;;-2.4;76.0
78679;BME280;67994;59.334;13.528;2024-03-07T03:58:00;102800.0;;;-2.3;75.3
78679;BME280;67994;59.334;13.528;2024-03-07T03:59:00;102800.0;;;-2.2;75.2
78679;BME280;67994;59.334;13.528;2024-03-07T04:00:01;102800.0;;;-2.3;75.9
78679;BME280;67994;59.334;13.528;2024-03-07T04:01:00;102800.0;;;-2.3;75.2
78679;BME280;67994;59.334;13.528;2024-03-07T04:02:01;102800.0;;;-2.5;76.1
78679;BME280;67994;59.334;13.528;2024-03-07T04:03:01;102800.0;;;-2.6;76.5
78679;BME280;67994;59.334;13.528;2024-03-07T04:04:00;102800.0;;;-2.6;76.2
78679;BME280;67994;59.334;13.528;2024-03-07T04:05:00;102800.0;;;-2.5;75.6
78679;BME280;67994;59.334;13.528;2024-03-07T04:06:00;102800.0;;;-2.5;76.0
78679;BME280;67994;59.334;13.528;2024-03-07T04:07:00;102800.0;;;-2.4;76.3
78679;BME280;67994;59.334;13.528;2024-03-07T04:08:00;102800.0;;;-2.5;77.1
78679;BME280;67994;59.334;13.528;2024-03-07T04:09:00;102800.0;;;-2.6;76.7
78679;BME280;67994;59.334;13.528;2024-03-07T04:10:00;102800.0;;;-2.8;76.6
78679;BME280;67994;59.334;13.528;2024-03-07T04:11:01;102800.0;;;-2.5;77.1
78679;BME280;67994;59.334;13.528;2024-03-07T04:12:00;102800.0;;;-2.4;77.2
78679;BME280;67994;59.334;13.528;2024-03-07T04:13:01;102800.0;;;-2.4;77.4
78679;BME280;67994;59.334;13.528;2024-03-07T04:14:01;102800.0;;;-2.3;77.2
78679;BME280;67994;59.334;13.528;2024-03-07T04:15:01;102800.0;;;-2.4;77.0
78679;BME280;67994;59.334;13.528;2024-03-07T04:16:01;102800.0;;;-2.4;77.2
78679;BME280;67994;59.334;13.528;2024-03-07T04:17:00;102800.0;;;-2.2;77.1
78679;BME280;67994;59.334;13.528;2024-03-07T04:18:01;102800.0;;;-2.4;76.9
78679;BME280;67994;59.334;13.528;2024-03-07T04:19:01;102800.0;;;-2.4;77.0
78679;BME280;67994;59.334;13.528;2024-03-07T04:20:01;102800.0;;;-2.4;77.0
78679;BME280;67994;59.334;13.528;2024-03-07T04:21:00;102800.0;;;-2.5;76.3
78679;BME280;67994;59.334;13.528;2024-03-07T04:22:01;102800.0;;;-2.6;76.3
78679;BME280;67994;59.334;13.528;2024-03-07T04:23:01;102800.0;;;-2.4;76.8
78679;BME280;67994;59.334;13.528;2024-03-07T04:24:01;102800.0;;;-2.3;77.1
78679;BME280;67994;59.334;13.528;2024-03-07T04:25:01;102800.0;;;-2.4;76.4
78679;BME280;67994;59.334;13.528;2024-03-07T04:26:01;102800.0;;;-2.4;75.8
78679;BME280;67994;59.334;13.528;2024-03-07T04:27:01;102800.0;;;-2.4;76.9
78679;BME280;67994;59.334;13.528;2024-03-07T04:28:01;102800.0;;;-2.2;76.8
78679;BME280;67994;59.334;13.528;2024-03-07T04:29:00;102800.0;;;-2.4;76.4
78679;BME280;67994;59.334;13.528;2024-03-07T04:30:01;102800.0;;;-2.3;76.7
78679;BME280;67994;59.334;13.528;2024-03-07T04:31:01;102800.0;;;-2.4;77.0
78679;BME280;67994;59.334;13.528;2024-03-07T04:32:02;102800.0;;;-2.4;75.4
78679;BME280;67994;59.334;13.528;2024-03-07T04:33:01;102800.0;;;-2.5;75.4
78679;BME280;67994;59.334;13.528;2024-03-07T04:34:01;102800.0;;;-2.5;75.9
78679;BME280;67994;59.334;13.528;2024-03-07T04:35:01;102800.0;;;-2.5;76.4
78679;BME280;67994;59.334;13.528;2024-03-07T04:36:01;102800.0;;;-2.5;76.7
78679;BME280;67994;59.334;13.528;2024-03-07T04:37:01;102800.0;;;-2.3;76.0
78679;BME280;67994;59.334;13.528;2024-03-07T04:38:01;102800.0;;;-2.2;75.6
78679;BME280;67994;59.334;13.528;2024-03-07T04:39:01;102800.0;;;-2.3;75.5
78679;BME280;67994;59.334;13.528;2024-03-07T04:40:00;102800.0;;;-2.3;75.5
78679;BME280;67994;59.334;13.528;2024-03-07T04:41:00;102800.0;;;-2.5;76.7
78679;BME280;67994;59.334;13.528;2024-03-07T04:42:01;102800.0;;;-2.5;77.1
78679;BME280;67994;59.334;13.528;2024-03-07T04:43:00;102800.0;;;-2.4;76.4
78679;BME280;67994;59.334;13.528;2024-03-07T04:44:00;102800.0;;;-2.4;76.8
78679;BME280;67994;59.334;13.528;2024-03-07T04:45:00;102800.0;;;-2.3;76.7
78679;BME280;67994;59.334;13.528;2024-03-07T04:46:01;102800.0;;;-2.3;76.9
78679;BME280;67994;59.334;13.528;2024-03-07T04:47:03;102800.0;;;-2.3;76.8
78679;BME280;67994;59.334;13.528;2024-03-07T04:48:00;102800.0;;;-2.3;76.1
78679;BME280;67994;59.334;13.528;2024-03-07T04:49:00;102800.0;;;-2.3;75.8
78679;BME280;67994;59.334;13.528;2024-03-07T04:50:00;102800.0;;;-2.3;76.0
78679;BME280;67994;59.334;13.528;2024-03-07T04:51:01;102800.0;;;-2.6;75.7
78679;BME280;67994;59.334;13.528;2024-03-07T04:52:02;102800.0;;;-2.6;75.9
78679;BME280;67994;59.334;13.528;2024-03-07T04:53:00;102800.0;;;-2.6;75.7
78679;BME280;67994;59.334;13.528;2024-03-07T04:54:00;102800.0;;;-2.6;75.8
78679;BME280;67994;59.334;13.528;2024-03-07T04:55:00;102800.0;;;-2.6;75.6
78679;BME280;67994;59.334;13.528;2024-03-07T04:56:00;102800.0;;;-2.5;75.5
78679;BME280;67994;59.334;13.528;2024-03-07T04:57:00;102800.0;;;-2.5;75.6
78679;BME280;67994;59.334;13.528;2024-03-07T04:58:01;102800.0;;;-2.5;75.7
78679;BME280;67994;59.334;13.528;2024-03-07T04:59:01;102800.0;;;-2.4;75.5
78679;BME280;67994;59.334;13.528;2024-03-07T05:00:00;102800.0;;;-2.4;74.7
78679;BME280;67994;59.334;13.528;2024-03-07T05:01:00;102800.0;;;-2.3;74.8
78679;BME280;67994;59.334;13.528;2024-03-07T05:02:00;102800.0;;;-2.3;74.8
78679;BME280;67994;59.334;13.528;2024-03-07T05:03:00;102800.0;;;-2.4;75.0
78679;BME280;67994;59.334;13.528;2024-03-07T05:04:00;102800.0;;;-2.5;74.9
78679;BME280;67994;59.334;13.528;2024-03-07T05:05:00;102800.0;;;-2.5;75.7
78679;BME280;67994;59.334;13.528;2024-03-07T05:06:00;102800.0;;;-2.5;75.6
78679;BME280;67994;59.334;13.528;2024-03-07T05:07:00;102800.0;;;-2.5;75.1
78679;BME280;67994;59.334;13.528;2024-03-07T05:08:00;102800.0;;;-2.4;74.1
78679;BME280;67994;59.334;13.528;2024-03-07T05:09:01;102800.0;;;-2.3;74.4
78679;BME280;67994;59.334;13.528;2024-03-07T05:10:00;102800.0;;;-2.3;74.3
78679;BME280;67994;59.334;13.528;2024-03-07T05:11:00;102800.0;;;-2.3;74.6
78679;BME280;67994;59.334;13.528;2024-03-07T05:12:01;102800.0;;;-2.4;74.3
78679;BME280;67994;59.334;13.528;2024-03-07T05:13:00;102800.0;;;-2.4;74.3
78679;BME280;67994;59.334;13.528;2024-03-07T05:14:01;102800.0;;;-2.4;74.2
78679;BME280;67994;59.334;13.528;2024-03-07T05:15:00;102800.0;;;-2.4;74.4
78679;BME280;67994;59.334;13.528;2024-03-07T05:16:01;102800.0;;;-2.4;74.5
78679;BME280;67994;59.334;13.528;2024-03-07T05:17:00;102800.0;;;-2.4;74.2
78679;BME280;67994;59.334;13.528;2024-03-07T05:18:00;102800.0;;;-2.4;75.3
78679;BME280;67994;59.334;13.528;2024-03-07T05:19:00;102800.0;;;-2.6;75.5
78679;BME280;67994;59.334;13.528;2024-03-07T05:20:00;102800.0;;;-2.6;74.7
78679;BME280;67994;59.334;13.528;2024-03-07T05:21:00;102800.0;;;-2.6;74.1